Time,TemperatureF,DewpointF,PressureIn,WindDirection,WindDirectionDegrees,WindSpeedMPH,WindSpeedGustMPH,Humidity,HourlyPrecipIn,Conditions,Clouds,dailyrainin,SolarRadiationWatts/m^2,SoftwareType,DateUTC
2013-12-26 00:02:00,30.0,28.0,-100.00,WSW,255,5.0,7.0,94,0.00,,,0.00,0.000000,,2013-12-26 06:02:00,
2013-12-26 00:12:00,30.0,28.0,-100.00,WSW,255,5.0,7.0,94,0.00,,,0.00,0.000000,,2013-12-26 06:12:00,
2013-12-26 00:42:00,29.0,27.0,-100.00,WSW,250,4.0,6.0,94,0.00,,,-99.99,0.000000,,2013-12-26 06:42:00,
2013-12-26 00:52:00,29.0,27.0,-100.00,WSW,250,4.0,6.0,94,0.00,,,-99.99,0.000000,,2013-12-26 06:52:00,
2013-12-26 01:01:00,29.0,27.0,-100.00,WSW,250,4.0,6.0,94,0.00,,,-99.99,0.000000,,2013-12-26 07:01:00,
2013-12-26 01:11:00,29.0,27.0,-100.00,WSW,250,4.0,6.0,94,0.00,,,-99.99,0.000000,,2013-12-26 07:11:00,
2013-12-26 01:42:00,29.0,27.0,-100.00,WSW,246,4.0,6.0,93,0.00,,,0.00,0.000000,,2013-12-26 07:42:00,
2013-12-26 01:52:00,29.0,27.0,-100.00,WSW,246,4.0,6.0,93,0.00,,,0.00,0.000000,,2013-12-26 07:52:00,
2013-12-26 02:02:00,29.0,27.0,-100.00,WSW,246,4.0,6.0,93,0.00,,,0.00,0.000000,,2013-12-26 08:02:00,
2013-12-26 02:11:00,29.0,27.0,-100.00,WSW,246,4.0,6.0,93,0.00,,,0.00,0.000000,,2013-12-26 08:11:00,
2013-12-26 02:42:00,29.0,27.0,-100.00,WSW,247,4.0,6.0,93,0.00,,,0.00,0.000000,,2013-12-26 08:42:00,
2013-12-26 02:53:00,29.0,27.0,-100.00,WSW,247,4.0,6.0,93,0.00,,,0.00,0.000000,,2013-12-26 08:53:00,
2013-12-26 03:02:00,29.0,27.0,-100.00,WSW,247,4.0,6.0,93,0.00,,,0.00,0.000000,,2013-12-26 09:02:00,
2013-12-26 03:12:00,29.0,27.0,-100.00,WSW,247,4.0,6.0,93,0.00,,,0.00,0.000000,,2013-12-26 09:12:00,
2013-12-26 03:43:00,28.0,27.0,-100.00,WSW,252,4.0,5.0,94,0.00,,,0.00,0.000000,,2013-12-26 09:43:00,
2013-12-26 03:53:00,28.0,27.0,-100.00,WSW,252,4.0,5.0,94,0.00,,,0.00,0.000000,,2013-12-26 09:53:00,
2013-12-26 04:03:00,28.0,27.0,-100.00,WSW,252,4.0,5.0,94,0.00,,,0.00,0.000000,,2013-12-26 10:03:00,
2013-12-26 04:12:00,28.0,27.0,-100.00,WSW,252,4.0,5.0,94,0.00,,,0.00,0.000000,,2013-12-26 10:12:00,
2013-12-26 04:43:00,28.0,26.0,-100.00,WSW,244,5.0,6.0,93,0.00,,,0.00,0.000000,,2013-12-26 10:43:00,
2013-12-26 04:52:00,28.0,26.0,-100.00,WSW,244,5.0,6.0,93,0.00,,,0.00,0.000000,,2013-12-26 10:52:00,
2013-12-26 05:02:00,28.0,26.0,-100.00,WSW,244,5.0,6.0,93,0.00,,,0.00,0.000000,,2013-12-26 11:02:00,
2013-12-26 05:12:00,28.0,26.0,-100.00,WSW,244,5.0,6.0,93,0.00,,,0.00,0.000000,,2013-12-26 11:12:00,
2013-12-26 05:43:00,27.0,25.0,-100.00,SW,215,4.0,5.0,93,0.00,,,0.00,0.000000,,2013-12-26 11:43:00,
2013-12-26 05:52:00,27.0,25.0,-100.00,SW,215,4.0,5.0,93,0.00,,,0.00,0.000000,,2013-12-26 11:52:00,
2013-12-26 06:02:00,27.0,25.0,-100.00,SW,215,4.0,5.0,93,0.00,,,0.00,0.000000,,2013-12-26 12:02:00,
2013-12-26 06:12:00,27.0,25.0,-100.00,SW,215,4.0,5.0,93,0.00,,,0.00,0.000000,,2013-12-26 12:12:00,
2013-12-26 07:42:00,25.0,23.0,-100.00,SSW,192,5.0,7.0,92,-99.99,,,0.00,0.000000,,2013-12-26 13:42:00,
2013-12-26 07:53:00,25.0,23.0,-100.00,SSW,192,5.0,7.0,92,-99.99,,,0.00,0.000000,,2013-12-26 13:53:00,
2013-12-26 08:01:00,25.0,23.0,-100.00,SSW,192,5.0,7.0,92,-99.99,,,0.00,0.000000,,2013-12-26 14:01:00,
2013-12-26 08:12:00,25.0,23.0,-100.00,SSW,192,5.0,7.0,92,-99.99,,,0.00,0.000000,,2013-12-26 14:12:00,
2013-12-26 08:42:00,27.0,25.0,-100.00,South,189,4.0,7.0,92,0.00,,,0.00,47.000000,,2013-12-26 14:42:00,
2013-12-26 08:52:00,27.0,25.0,-100.00,South,189,4.0,7.0,92,0.00,,,0.00,47.000000,,2013-12-26 14:52:00,
2013-12-26 09:02:00,27.0,25.0,-100.00,South,189,4.0,7.0,92,0.00,,,0.00,47.000000,,2013-12-26 15:02:00,
2013-12-26 09:12:00,27.0,25.0,-100.00,South,189,4.0,7.0,92,0.00,,,0.00,47.000000,,2013-12-26 15:12:00,
2013-12-26 09:13:00,31.0,28.0,-100.00,South,188,5.0,8.0,87,0.00,,,0.00,182.000000,,2013-12-26 15:13:00,
2013-12-26 09:43:00,31.0,28.0,-100.00,South,188,5.0,8.0,87,0.00,,,0.00,182.000000,,2013-12-26 15:43:00,
2013-12-26 09:53:00,31.0,28.0,-100.00,South,188,5.0,8.0,87,0.00,,,0.00,182.000000,,2013-12-26 15:53:00,
2013-12-26 10:03:00,31.0,28.0,-100.00,South,188,5.0,8.0,87,0.00,,,0.00,182.000000,,2013-12-26 16:03:00,
2013-12-26 10:42:00,36.0,32.0,-100.00,SSW,202,4.0,9.0,85,0.00,,,0.00,302.000000,,2013-12-26 16:42:00,
2013-12-26 10:53:00,36.0,32.0,-100.00,SSW,202,4.0,9.0,85,0.00,,,0.00,302.000000,,2013-12-26 16:53:00,
2013-12-26 11:02:00,36.0,32.0,-100.00,SSW,202,4.0,9.0,85,0.00,,,0.00,302.000000,,2013-12-26 17:02:00,
2013-12-26 11:12:00,36.0,32.0,-100.00,SSW,202,4.0,9.0,85,0.00,,,0.00,302.000000,,2013-12-26 17:12:00,
2013-12-26 11:43:00,39.0,34.0,-100.00,SSW,210,6.0,11.0,81,0.00,,,0.00,336.000000,,2013-12-26 17:43:00,
2013-12-26 11:52:00,39.0,34.0,-100.00,SSW,210,6.0,11.0,81,0.00,,,0.00,336.000000,,2013-12-26 17:52:00,
2013-12-26 12:02:00,39.0,34.0,-100.00,SSW,210,6.0,11.0,81,0.00,,,0.00,336.000000,,2013-12-26 18:02:00,
2013-12-26 12:12:00,39.0,34.0,-100.00,SSW,210,6.0,11.0,81,0.00,,,0.00,336.000000,,2013-12-26 18:12:00,
2013-12-26 12:42:00,43.0,34.0,-100.00,SW,220,8.0,16.0,70,0.00,,,0.00,497.000000,,2013-12-26 18:42:00,
2013-12-26 12:52:00,43.0,34.0,-100.00,SW,220,8.0,16.0,70,0.00,,,0.00,497.000000,,2013-12-26 18:52:00,
2013-12-26 13:02:00,43.0,34.0,-100.00,SW,220,8.0,16.0,70,0.00,,,0.00,497.000000,,2013-12-26 19:02:00,
2013-12-26 13:11:00,43.0,34.0,-100.00,SW,220,8.0,16.0,70,0.00,,,0.00,497.000000,,2013-12-26 19:11:00,
2013-12-26 13:42:00,46.0,32.0,-100.00,SW,219,9.0,16.0,57,0.00,,,0.00,606.000000,,2013-12-26 19:42:00,
2013-12-26 13:52:00,46.0,32.0,-100.00,SW,219,9.0,16.0,57,0.00,,,0.00,606.000000,,2013-12-26 19:52:00,
2013-12-26 14:02:00,46.0,32.0,-100.00,SW,219,9.0,16.0,57,0.00,,,0.00,606.000000,,2013-12-26 20:02:00,
2013-12-26 14:12:00,46.0,32.0,-100.00,SW,219,9.0,16.0,57,0.00,,,0.00,606.000000,,2013-12-26 20:12:00,
2013-12-26 14:42:00,48.0,29.0,-100.00,SSW,209,10.0,17.0,48,0.00,,,0.00,521.000000,,2013-12-26 20:42:00,
2013-12-26 14:52:00,48.0,29.0,-100.00,SSW,209,10.0,17.0,48,0.00,,,0.00,521.000000,,2013-12-26 20:52:00,
2013-12-26 15:02:00,48.0,29.0,-100.00,SSW,209,10.0,17.0,48,0.00,,,0.00,521.000000,,2013-12-26 21:02:00,
2013-12-26 15:11:00,48.0,29.0,-100.00,SSW,209,10.0,17.0,48,0.00,,,0.00,521.000000,,2013-12-26 21:11:00,
2013-12-26 15:43:00,49.0,29.0,-100.00,SSW,201,7.0,17.0,45,0.00,,,0.00,398.000000,,2013-12-26 21:43:00,
2013-12-26 15:53:00,49.0,29.0,-100.00,SSW,201,7.0,17.0,45,0.00,,,0.00,398.000000,,2013-12-26 21:53:00,
2013-12-26 16:03:00,49.0,29.0,-100.00,SSW,201,7.0,17.0,45,0.00,,,0.00,398.000000,,2013-12-26 22:03:00,
2013-12-26 16:12:00,49.0,29.0,-100.00,SSW,201,7.0,17.0,45,0.00,,,0.00,398.000000,,2013-12-26 22:12:00,
2013-12-26 16:43:00,47.0,27.0,-100.00,SSW,211,8.0,19.0,46,0.00,,,0.00,216.000000,,2013-12-26 22:43:00,
2013-12-26 16:52:00,47.0,27.0,-100.00,SSW,211,8.0,19.0,46,0.00,,,0.00,216.000000,,2013-12-26 22:52:00,
2013-12-26 17:03:00,47.0,27.0,-100.00,SSW,211,8.0,19.0,46,0.00,,,0.00,216.000000,,2013-12-26 23:03:00,
2013-12-26 17:12:00,47.0,27.0,-100.00,SSW,211,8.0,19.0,46,0.00,,,0.00,216.000000,,2013-12-26 23:12:00,
2013-12-26 17:42:00,44.0,27.0,-100.00,SSW,195,6.0,13.0,50,0.00,,,0.00,45.000000,,2013-12-26 23:42:00,
2013-12-26 17:53:00,44.0,27.0,-100.00,SSW,195,6.0,13.0,50,0.00,,,0.00,45.000000,,2013-12-26 23:53:00,
2013-12-26 18:02:00,44.0,27.0,-100.00,SSW,195,6.0,13.0,50,0.00,,,0.00,45.000000,,2013-12-27 00:02:00,
2013-12-26 18:12:00,44.0,27.0,-100.00,SSW,195,6.0,13.0,50,0.00,,,0.00,45.000000,,2013-12-27 00:12:00,
2013-12-26 18:42:00,42.0,26.0,-100.00,SSW,199,5.0,9.0,52,0.00,,,0.00,0.000000,,2013-12-27 00:42:00,
2013-12-26 18:52:00,42.0,26.0,-100.00,SSW,199,5.0,9.0,52,0.00,,,0.00,0.000000,,2013-12-27 00:52:00,
2013-12-26 19:02:00,42.0,26.0,-100.00,SSW,199,5.0,9.0,52,0.00,,,0.00,0.000000,,2013-12-27 01:02:00,
2013-12-26 19:11:00,42.0,26.0,-100.00,SSW,199,5.0,9.0,52,0.00,,,0.00,0.000000,,2013-12-27 01:11:00,
2013-12-26 19:42:00,40.0,24.0,-100.00,SSW,208,5.0,9.0,53,0.00,,,0.00,0.000000,,2013-12-27 01:42:00,
2013-12-26 19:52:00,40.0,24.0,-100.00,SSW,208,5.0,9.0,53,0.00,,,0.00,0.000000,,2013-12-27 01:52:00,
2013-12-26 20:01:00,40.0,24.0,-100.00,SSW,208,5.0,9.0,53,0.00,,,0.00,0.000000,,2013-12-27 02:01:00,
2013-12-26 20:11:00,40.0,24.0,-100.00,SSW,208,5.0,9.0,53,0.00,,,0.00,0.000000,,2013-12-27 02:11:00,
2013-12-26 20:42:00,39.0,25.0,-100.00,SSW,205,5.0,8.0,56,0.00,,,0.00,0.000000,,2013-12-27 02:42:00,
2013-12-26 20:52:00,39.0,25.0,-100.00,SSW,205,5.0,8.0,56,0.00,,,0.00,0.000000,,2013-12-27 02:52:00,
2013-12-26 21:02:00,39.0,25.0,-100.00,SSW,205,5.0,8.0,56,0.00,,,0.00,0.000000,,2013-12-27 03:02:00,
2013-12-26 21:11:00,39.0,25.0,-100.00,SSW,205,5.0,8.0,56,0.00,,,0.00,0.000000,,2013-12-27 03:11:00,
2013-12-26 21:43:00,38.0,25.0,-100.00,SW,215,6.0,8.0,59,0.00,,,0.00,0.000000,,2013-12-27 03:43:00,
2013-12-26 21:53:00,38.0,25.0,-100.00,SW,215,6.0,8.0,59,0.00,,,0.00,0.000000,,2013-12-27 03:53:00,
2013-12-26 22:03:00,38.0,25.0,-100.00,SW,215,6.0,8.0,59,0.00,,,0.00,0.000000,,2013-12-27 04:03:00,
2013-12-26 22:12:00,38.0,25.0,-100.00,SW,215,6.0,8.0,59,0.00,,,0.00,0.000000,,2013-12-27 04:12:00,
2013-12-26 22:43:00,37.0,25.0,-100.00,SSW,206,5.0,9.0,61,0.00,,,0.00,0.000000,,2013-12-27 04:43:00,
2013-12-26 22:53:00,37.0,25.0,-100.00,SSW,206,5.0,9.0,61,0.00,,,0.00,0.000000,,2013-12-27 04:53:00,
2013-12-26 23:02:00,37.0,25.0,-100.00,SSW,206,5.0,9.0,61,0.00,,,0.00,0.000000,,2013-12-27 05:02:00,
2013-12-26 23:12:00,37.0,25.0,-100.00,SSW,206,5.0,9.0,61,0.00,,,0.00,0.000000,,2013-12-27 05:12:00,
2013-12-26 23:42:00,37.0,25.0,-100.00,SW,219,7.0,12.0,62,0.00,,,0.00,0.000000,,2013-12-27 05:42:00,
2013-12-26 23:52:00,37.0,25.0,-100.00,SW,219,7.0,12.0,62,0.00,,,0.00,0.000000,,2013-12-27 05:52:00,